Time;durP1;ratioP1;P1;durP2;ratioP2;P2;SDS_P1;SDS_P2;PMS_P1;PMS_P2;Temp;Humidity;BMP_temperature;BMP_pressure;BME280_temperature;BME280_humidity;BME280_pressure;Samples;Min_cycle;Max_cycle;Signal;HPM_P1;HPM_P2
2023/01/20 00:00:25;;;;;;;74.90;31.80;;;;;;;1.69;91.35;99492.33;131175;1247;109172;-72
2023/01/20 00:03:52;;;;;;;63.80;27.90;;;;;;;1.64;91.16;99496.52;131209;1248;107859;-72
2023/01/20 00:06:57;;;;;;;67.00;27.70;;;;;;;1.68;91.27;99497.96;131231;1247;107471;-71
2023/01/20 00:10:03;;;;;;;65.00;28.20;;;;;;;1.77;91.21;99503.61;131238;1252;108627;-71
2023/01/20 00:13:09;;;;;;;59.30;27.50;;;;;;;1.80;90.45;99506.03;131214;1254;109441;-71
2023/01/20 00:16:14;;;;;;;70.60;29.20;;;;;;;1.74;90.37;99510.45;131226;1254;107500;-71
2023/01/20 00:19:20;;;;;;;67.00;27.80;;;;;;;1.74;90.54;99513.64;131234;1254;107444;-72
2023/01/20 00:22:25;;;;;;;53.70;23.80;;;;;;;1.78;90.71;99516.38;131206;1247;107272;-72
2023/01/20 00:25:31;;;;;;;66.60;27.80;;;;;;;1.83;90.29;99524.43;131409;1254;106516;-71
2023/01/20 00:28:37;;;;;;;76.30;29.80;;;;;;;1.80;90.14;99523.76;131232;1253;107611;-72
2023/01/20 00:31:42;;;;;;;78.90;31.50;;;;;;;1.72;90.06;99526.62;131184;1253;107563;-71
2023/01/20 00:34:48;;;;;;;93.00;36.30;;;;;;;1.68;90.34;99528.10;131233;1253;108597;-71
2023/01/20 00:37:54;;;;;;;84.80;33.00;;;;;;;1.62;90.18;99528.92;131204;1248;107422;-72
2023/01/20 00:41:00;;;;;;;98.50;35.20;;;;;;;1.53;90.36;99532.17;131221;1248;106130;-72
2023/01/20 00:44:05;;;;;;;80.30;30.80;;;;;;;1.52;90.46;99535.29;131213;1253;107421;-72
2023/01/20 00:47:11;;;;;;;88.50;33.10;;;;;;;1.52;90.55;99538.97;131219;1254;106683;-72
2023/01/20 00:50:17;;;;;;;73.90;29.80;;;;;;;1.49;90.49;99546.87;131290;1254;107431;-70
2023/01/20 00:53:23;;;;;;;65.90;27.80;;;;;;;1.47;90.52;99550.36;131418;1248;107481;-71
2023/01/20 00:56:29;;;;;;;70.10;28.30;;;;;;;1.47;90.61;99557.39;131283;1253;107493;-71
2023/01/20 00:59:34;;;;;;;74.90;29.30;;;;;;;1.46;90.66;99554.69;131190;1254;108662;-72
2023/01/20 01:02:40;;;;;;;82.20;32.90;;;;;;;1.47;90.57;99557.40;131179;1254;107526;-71
2023/01/20 01:05:46;;;;;;;61.40;25.90;;;;;;;1.52;90.93;99561.41;131232;1253;107614;-70
2023/01/20 01:08:52;;;;;;;64.70;28.50;;;;;;;1.60;90.47;99559.61;131115;1253;108114;-71
2023/01/20 01:11:58;;;;;;;64.20;26.50;;;;;;;1.57;90.33;99566.61;131196;1247;108258;-73
2023/01/20 01:15:04;;;;;;;62.50;27.60;;;;;;;1.58;90.16;99571.10;131224;1253;106608;-72
2023/01/20 01:18:09;;;;;;;61.20;26.90;;;;;;;1.53;90.13;99570.05;131189;1252;107430;-71
2023/01/20 01:21:16;;;;;;;68.80;27.80;;;;;;;1.46;90.15;99575.30;131215;1248;107525;-73
2023/01/20 01:24:22;;;;;;;65.50;27.20;;;;;;;1.42;90.29;99582.44;131243;1253;105709;-72
2023/01/20 01:27:29;;;;;;;57.30;25.50;;;;;;;1.42;90.39;99586.45;131364;1248;107642;-72
2023/01/20 01:30:34;;;;;;;57.10;25.70;;;;;;;1.45;90.35;99586.95;131375;1253;107372;-72
2023/01/20 01:33:40;;;;;;;60.80;25.90;;;;;;;1.49;90.38;99584.58;131375;1254;105410;-72
2023/01/20 01:36:45;;;;;;;60.30;25.80;;;;;;;1.47;90.12;99584.23;131360;1253;107324;-72
2023/01/20 01:39:51;;;;;;;62.60;26.60;;;;;;;1.42;90.19;99574.89;131256;1254;108647;-70
2023/01/20 01:42:56;;;;;;;62.70;25.30;;;;;;;1.34;90.08;99573.73;131318;1254;108104;-70
2023/01/20 01:46:03;;;;;;;61.90;25.40;;;;;;;1.30;90.29;99574.75;131210;1261;108107;-71
2023/01/20 01:49:14;;;;;;;57.30;24.00;;;;;;;1.24;90.22;99573.59;131245;1253;107451;-72
2023/01/20 01:52:20;;;;;;;55.80;23.70;;;;;;;1.24;90.17;99570.83;131328;1247;107440;-72
2023/01/20 01:55:30;;;;;;;58.40;25.50;;;;;;;1.22;90.20;99567.27;131410;1254;107473;-72
2023/01/20 01:58:38;;;;;;;61.20;24.70;;;;;;;1.16;90.09;99564.14;131410;1252;107446;-72
2023/01/20 02:01:48;;;;;;;53.40;22.80;;;;;;;1.13;90.15;99555.27;131209;1253;108707;-73
2023/01/20 02:04:53;;;;;;;54.10;22.10;;;;;;;1.14;90.20;99554.45;131295;1248;107446;-72
2023/01/20 02:07:59;;;;;;;49.10;21.90;;;;;;;1.16;90.18;99551.93;131412;1253;107547;-70
2023/01/20 02:11:05;;;;;;;54.30;22.70;;;;;;;1.16;90.11;99546.80;131227;1253;107636;-70
2023/01/20 02:14:11;;;;;;;52.60;23.70;;;;;;;1.18;90.28;99552.11;131249;1253;106642;-70
2023/01/20 02:17:25;;;;;;;54.90;22.90;;;;;;;1.16;90.12;99558.23;131193;1254;108102;-71
2023/01/20 02:21:08;;;;;;;51.20;21.70;;;;;;;1.12;90.19;99563.77;131213;1254;108607;-71
2023/01/20 02:24:38;;;;;;;;;;;;;;;1.09;90.30;99565.52;131124;1254;107366;-69
2023/01/20 02:28:02;;;;;;;53.60;23.40;;;;;;;1.15;90.51;99570.52;131186;1253;107428;-72
2023/01/20 02:31:40;;;;;;;45.90;21.00;;;;;;;1.18;90.23;99574.90;131276;1261;107468;-72
2023/01/20 02:34:52;;;;;;;50.30;21.20;;;;;;;1.20;90.24;99573.36;131302;1250;107500;-72
2023/01/20 02:38:10;;;;;;;42.70;20.10;;;;;;;1.20;90.15;99579.48;131269;1253;108593;-72
2023/01/20 02:41:21;;;;;;;45.80;21.00;;;;;;;1.23;89.96;99586.64;131290;1247;107375;-70
2023/01/20 02:44:35;;;;;;;40.50;20.20;;;;;;;1.27;90.16;99598.45;131343;1259;109218;-70
2023/01/20 02:47:46;;;;;;;49.40;20.90;;;;;;;1.32;90.17;99603.85;131288;1254;109255;-69
2023/01/20 02:50:59;;;;;;;42.70;19.60;;;;;;;1.38;89.97;99613.05;131293;1253;108142;-69
2023/01/20 02:54:10;;;;;;;38.90;17.50;;;;;;;1.43;89.87;99615.73;131211;1247;108295;-72
2023/01/20 02:57:21;;;;;;;37.80;18.60;;;;;;;1.52;89.73;99619.44;131215;1253;108346;-70
2023/01/20 03:00:33;;;;;;;40.80;18.80;;;;;;;1.62;89.91;99621.48;131206;1253;108261;-72
2023/01/20 03:03:43;;;;;;;46.60;19.70;;;;;;;1.68;89.50;99622.48;131276;1253;107537;-73
2023/01/20 03:06:52;;;;;;;42.90;20.50;;;;;;;1.66;89.49;99626.98;131279;1254;107463;-71
2023/01/20 03:10:02;;;;;;;44.50;19.90;;;;;;;1.66;89.33;99625.44;131178;1254;107540;-71
2023/01/20 03:13:15;;;;;;;43.60;20.10;;;;;;;1.58;89.32;99618.83;131409;1253;106487;-70
2023/01/20 03:16:23;;;;;;;46.00;20.00;;;;;;;1.48;89.34;99623.70;131192;1247;107462;-74
2023/01/20 03:19:28;;;;;;;45.50;19.90;;;;;;;1.45;89.51;99628.65;131216;1253;107515;-71
2023/01/20 03:22:34;;;;;;;47.40;21.00;;;;;;;1.45;89.37;99631.81;131200;1247;107538;-71
2023/01/20 03:25:41;;;;;;;47.80;20.90;;;;;;;1.43;89.46;99635.67;131164;1252;107404;-72
2023/01/20 03:28:48;;;;;;;47.60;20.50;;;;;;;1.45;89.81;99639.73;131230;1252;107520;-70
2023/01/20 03:31:57;;;;;;;47.80;20.70;;;;;;;1.51;89.64;99650.68;131162;1247;107251;-71
2023/01/20 03:35:04;;;;;;;53.40;23.00;;;;;;;1.54;89.65;99657.80;131312;1253;107426;-71
2023/01/20 03:38:10;;;;;;;49.20;20.40;;;;;;;1.57;89.51;99658.30;131306;1253;106373;-71
2023/01/20 03:41:25;;;;;;;41.90;18.30;;;;;;;1.58;89.33;99662.80;131315;1248;107609;-72
2023/01/20 03:44:43;;;;;;;44.70;19.40;;;;;;;1.57;89.22;99656.94;131284;1252;107470;-72
2023/01/20 03:47:58;;;;;;;43.10;19.80;;;;;;;1.50;88.84;99661.12;131466;1248;107439;-71
2023/01/20 03:51:13;;;;;;;43.70;20.20;;;;;;;1.43;89.24;99662.10;131391;1253;107524;-71
2023/01/20 03:54:23;;;;;;;55.50;23.70;;;;;;;1.41;89.19;99662.61;131276;1248;108511;-69
2023/01/20 03:57:34;;;;;;;41.00;19.50;;;;;;;1.36;89.19;99669.42;131084;1247;107914;-71
2023/01/20 04:00:44;;;;;;;44.80;19.50;;;;;;;1.31;89.42;99670.63;131099;1252;107389;-73
2023/01/20 04:03:52;;;;;;;47.50;20.30;;;;;;;1.28;89.31;99676.86;131339;1263;107397;-73
2023/01/20 04:06:59;;;;;;;43.40;19.50;;;;;;;1.28;89.51;99686.15;131343;1247;107515;-73
2023/01/20 04:10:10;;;;;;;40.80;18.60;;;;;;;1.32;89.39;99694.25;131233;1247;107410;-74
2023/01/20 04:13:17;;;;;;;41.60;20.00;;;;;;;1.31;89.15;99703.95;131132;1253;217424;-73
2023/01/20 04:16:25;;;;;;;48.00;21.20;;;;;;;1.32;89.17;99706.71;131354;1254;107533;-73
2023/01/20 04:19:30;;;;;;;41.40;19.10;;;;;;;1.41;89.43;99709.04;131271;1253;107499;-73
2023/01/20 04:22:44;;;;;;;50.10;22.30;;;;;;;1.44;89.15;99711.52;131258;1253;108656;-73
2023/01/20 04:25:49;;;;;;;42.50;19.50;;;;;;;1.46;89.15;99714.16;131232;1253;107509;-74
2023/01/20 04:28:55;;;;;;;43.70;19.20;;;;;;;1.46;89.08;99710.42;131245;1248;107474;-73
2023/01/20 04:32:02;;;;;;;47.40;20.70;;;;;;;1.42;88.80;99708.96;131278;1248;108148;-73
2023/01/20 04:35:09;;;;;;;266.30;70.60;;;;;;;1.34;88.92;99717.08;131356;1253;107519;-73
2023/01/20 04:38:15;;;;;;;563.50;210.10;;;;;;;1.38;89.56;99723.30;131435;1253;107449;-72
2023/01/20 04:41:20;;;;;;;700.50;298.40;;;;;;;1.50;89.31;99724.70;131277;1252;106300;-73
2023/01/20 04:44:26;;;;;;;855.60;319.60;;;;;;;1.62;89.30;99730.69;131276;1252;107371;-73
2023/01/20 04:47:33;;;;;;;589.40;238.00;;;;;;;1.76;89.28;99729.72;131206;1253;107495;-73
2023/01/20 04:50:41;;;;;;;100.40;37.80;;;;;;;1.86;89.04;99734.82;131324;1253;107507;-73
2023/01/20 04:53:46;;;;;;;61.20;24.30;;;;;;;1.88;88.60;99736.94;131327;1251;107544;-73
2023/01/20 04:56:52;;;;;;;46.10;22.40;;;;;;;1.80;88.23;99742.41;131280;1253;107530;-74
2023/01/20 04:59:57;;;;;;;40.30;19.30;;;;;;;1.69;88.13;99749.88;131314;1251;107500;-74
2023/01/20 05:03:04;;;;;;;37.40;18.90;;;;;;;1.52;88.10;99753.34;131267;1253;108124;-74
2023/01/20 05:06:11;;;;;;;39.00;18.90;;;;;;;1.40;88.26;99763.13;131348;1248;107616;-71
2023/01/20 05:09:17;;;;;;;41.90;19.20;;;;;;;1.36;88.62;99775.45;131447;1254;107624;-74
2023/01/20 05:12:23;;;;;;;31.10;15.10;;;;;;;1.36;88.35;99782.48;131215;1253;107475;-74
2023/01/20 05:15:29;;;;;;;35.70;17.90;;;;;;;1.40;88.80;99785.90;131277;1253;105843;-73
2023/01/20 05:18:35;;;;;;;40.80;19.50;;;;;;;1.51;88.72;99788.13;131414;1247;107547;-73
2023/01/20 05:21:41;;;;;;;51.20;22.10;;;;;;;1.55;88.36;99791.48;131405;1248;107430;-73
2023/01/20 05:24:46;;;;;;;874.60;352.60;;;;;;;1.59;88.91;99790.69;131423;1248;107435;-73
2023/01/20 05:27:52;;;;;;;1231.30;497.10;;;;;;;1.69;88.79;99794.20;131379;1248;107565;-73
2023/01/20 05:30:58;;;;;;;511.80;153.50;;;;;;;1.75;88.67;99808.15;131240;1248;107522;-73
2023/01/20 05:34:03;;;;;;;474.20;130.90;;;;;;;1.82;88.65;99809.23;131288;1248;106341;-73
2023/01/20 05:37:10;;;;;;;781.20;246.40;;;;;;;1.89;88.44;99815.39;131327;1247;107400;-73
2023/01/20 05:40:16;;;;;;;801.00;270.30;;;;;;;1.97;88.47;99820.30;131308;1253;107605;-73
2023/01/20 05:43:22;;;;;;;833.70;283.70;;;;;;;2.03;88.20;99828.50;131286;1253;105944;-73
2023/01/20 05:46:27;;;;;;;667.80;216.40;;;;;;;2.07;88.33;99824.55;131314;1248;107532;-72
2023/01/20 05:49:33;;;;;;;593.40;185.60;;;;;;;2.07;87.99;99826.25;131408;1248;107381;-72
2023/01/20 05:52:38;;;;;;;1059.20;370.30;;;;;;;2.06;88.01;99828.84;131487;1251;107504;-71
2023/01/20 05:55:44;;;;;;;408.70;119.30;;;;;;;2.04;87.84;99843.70;131497;1248;108686;-74
2023/01/20 05:58:53;;;;;;;152.60;49.10;;;;;;;2.02;87.68;99847.70;131609;1253;108557;-71
2023/01/20 06:01:59;;;;;;;91.00;34.40;;;;;;;1.90;87.06;99846.58;131305;1254;107493;-74
2023/01/20 06:05:05;;;;;;;47.90;21.90;;;;;;;1.74;87.16;99843.35;131159;1249;106390;-73
2023/01/20 06:08:11;;;;;;;46.20;21.10;;;;;;;1.59;86.81;99838.55;131332;1253;107316;-73
2023/01/20 06:11:16;;;;;;;40.60;20.70;;;;;;;1.46;87.16;99836.10;131147;1253;107464;-72
2023/01/20 06:14:22;;;;;;;57.70;26.40;;;;;;;1.36;86.98;99833.11;131204;1252;107356;-73
2023/01/20 06:17:28;;;;;;;41.10;22.30;;;;;;;1.33;87.47;99835.92;131193;1253;108103;-71
2023/01/20 06:20:33;;;;;;;41.70;21.20;;;;;;;1.27;87.19;99830.61;131221;1251;107479;-72
2023/01/20 06:23:39;;;;;;;43.10;22.30;;;;;;;1.14;87.28;99829.34;131255;1251;108609;-72
2023/01/20 06:26:45;;;;;;;45.20;21.50;;;;;;;1.07;87.63;99836.66;131379;1247;107553;-72
2023/01/20 06:29:50;;;;;;;44.70;22.20;;;;;;;0.98;87.59;99841.44;131329;1253;107595;-72
2023/01/20 06:32:57;;;;;;;45.50;21.80;;;;;;;0.92;87.55;99843.29;131263;1253;107429;-72
2023/01/20 06:36:03;;;;;;;40.40;20.50;;;;;;;0.90;87.81;99851.96;131300;1248;107376;-73
2023/01/20 06:39:08;;;;;;;46.00;22.20;;;;;;;0.95;87.91;99872.51;131340;1253;107481;-73
2023/01/20 06:42:13;;;;;;;186.60;79.70;;;;;;;1.05;88.04;99878.31;131210;1247;107496;-73
2023/01/20 06:45:19;;;;;;;88.50;38.60;;;;;;;1.18;88.07;99873.38;131289;1247;108562;-73
2023/01/20 06:48:25;;;;;;;70.50;33.20;;;;;;;1.23;87.77;99880.48;131190;1248;106971;-73
2023/01/20 06:51:32;;;;;;;161.20;63.90;;;;;;;1.22;87.75;99891.77;131241;1252;108672;-72
2023/01/20 06:54:37;;;;;;;155.30;59.50;;;;;;;1.30;88.13;99903.98;131296;1247;107210;-73
2023/01/20 06:57:43;;;;;;;61.50;29.30;;;;;;;1.41;88.09;99924.46;131213;1253;107493;-73
2023/01/20 07:00:48;;;;;;;48.90;23.90;;;;;;;1.50;88.07;99931.91;131255;1247;107535;-72
2023/01/20 07:03:54;;;;;;;39.90;20.30;;;;;;;1.63;87.95;99937.02;131277;1252;107629;-73
2023/01/20 07:07:00;;;;;;;40.70;21.50;;;;;;;1.75;87.95;99935.85;131264;1248;107457;-71
2023/01/20 07:10:07;;;;;;;53.00;26.40;;;;;;;1.88;87.81;99940.16;131422;1248;107284;-74
2023/01/20 07:13:12;;;;;;;527.80;175.50;;;;;;;2.00;87.78;99940.07;131394;1248;107572;-72
2023/01/20 07:16:18;;;;;;;165.20;53.90;;;;;;;2.10;87.54;99941.36;131408;1253;106254;-72
2023/01/20 07:19:23;;;;;;;98.90;40.20;;;;;;;2.16;87.25;99944.06;131258;1247;107373;-74
2023/01/20 07:22:29;;;;;;;329.70;136.20;;;;;;;2.19;87.54;99947.59;131245;1248;107245;-75
2023/01/20 07:25:36;;;;;;;224.50;92.60;;;;;;;2.22;87.30;99951.54;131408;1253;107621;-76
2023/01/20 07:28:42;;;;;;;100.40;45.60;;;;;;;2.25;87.26;99946.26;131397;1247;107356;-74
2023/01/20 07:31:47;;;;;;;54.00;26.20;;;;;;;2.23;87.13;99947.92;131412;1253;107588;-74
2023/01/20 07:34:53;;;;;;;52.10;25.60;;;;;;;2.14;86.29;99953.84;131432;1254;106620;-76
2023/01/20 07:37:59;;;;;;;45.70;24.60;;;;;;;2.07;86.54;99959.63;131230;1253;107661;-75
2023/01/20 07:41:09;;;;;;;45.50;23.90;;;;;;;2.05;86.22;99965.04;131229;1254;107508;-78
2023/01/20 07:44:15;;;;;;;44.80;23.00;;;;;;;1.96;86.44;99976.17;131439;1250;108640;-75
2023/01/20 07:47:21;;;;;;;44.70;23.60;;;;;;;1.90;86.42;99980.42;131445;1250;108560;-75
2023/01/20 07:50:26;;;;;;;61.30;36.00;;;;;;;1.76;86.00;99975.21;131486;1250;107497;-75
2023/01/20 07:53:33;;;;;;;53.00;26.90;;;;;;;1.61;86.23;99973.46;131482;1250;106696;-75
2023/01/20 07:56:38;;;;;;;47.90;26.40;;;;;;;1.47;86.38;99972.58;131451;1250;108678;-75
2023/01/20 07:59:44;;;;;;;59.90;27.90;;;;;;;1.36;86.60;99979.60;131426;1253;107353;-74
2023/01/20 08:02:50;;;;;;;55.00;27.90;;;;;;;1.30;86.64;99979.31;131387;1253;106459;-75
2023/01/20 08:05:55;;;;;;;56.80;27.10;;;;;;;1.26;86.73;99977.49;131355;1253;108512;-74
2023/01/20 08:09:02;;;;;;;61.70;28.80;;;;;;;1.26;86.97;99977.48;131445;1252;107524;-75
2023/01/20 08:12:09;;;;;;;51.80;26.90;;;;;;;1.34;87.01;99980.48;131304;1253;107543;-74
2023/01/20 08:15:15;;;;;;;58.60;29.30;;;;;;;1.36;86.77;99979.05;131297;1253;107515;-74
2023/01/20 08:18:20;;;;;;;51.80;27.00;;;;;;;1.36;86.39;99982.60;131401;1248;107258;-74
2023/01/20 08:21:28;;;;;;;73.40;34.80;;;;;;;1.32;86.47;99978.50;131396;1247;107223;-74
2023/01/20 08:24:33;;;;;;;88.00;38.10;;;;;;;1.31;86.69;99979.06;131381;1253;107363;-75
2023/01/20 08:27:39;;;;;;;135.20;52.80;;;;;;;1.32;86.83;99988.48;131323;1248;107528;-75
2023/01/20 08:30:44;;;;;;;114.60;44.90;;;;;;;1.39;86.74;99992.91;131372;1253;107527;-75
2023/01/20 08:33:54;;;;;;;55.70;27.60;;;;;;;1.45;86.40;99994.27;131395;1247;107624;-75
2023/01/20 08:36:59;;;;;;;58.20;29.50;;;;;;;1.41;86.17;100004.36;131439;1248;107507;-75
2023/01/20 08:40:07;;;;;;;66.20;31.80;;;;;;;1.37;86.41;100011.26;131355;1254;107642;-75
2023/01/20 08:43:14;;;;;;;108.20;43.10;;;;;;;1.37;86.59;100010.76;131280;1247;107277;-75
2023/01/20 08:46:21;;;;;;;74.00;34.20;;;;;;;1.37;86.58;100015.13;131312;1247;107512;-75
2023/01/20 08:49:28;;;;;;;62.00;30.70;;;;;;;1.43;86.84;100011.80;131304;1248;107317;-75
2023/01/20 08:52:34;;;;;;;58.80;29.30;;;;;;;1.41;86.32;100014.70;131438;1253;107294;-75
2023/01/20 08:55:39;;;;;;;68.50;32.00;;;;;;;1.36;86.51;100015.58;131403;1253;107254;-75
2023/01/20 08:58:45;;;;;;;61.00;29.80;;;;;;;1.33;86.55;100013.66;131258;1248;105689;-75
2023/01/20 09:01:51;;;;;;;53.10;25.90;;;;;;;1.36;86.60;100012.05;131282;1248;107203;-74
2023/01/20 09:04:56;;;;;;;60.80;31.40;;;;;;;1.44;86.85;100013.09;131441;1253;106528;-74
2023/01/20 09:08:02;;;;;;;56.40;29.20;;;;;;;1.47;86.38;100012.89;131417;1252;107604;-74
2023/01/20 09:11:10;;;;;;;73.10;34.40;;;;;;;1.49;86.64;100014.38;131350;1253;107328;-74
2023/01/20 09:14:16;;;;;;;66.50;31.00;;;;;;;1.47;86.36;100018.67;131384;1247;107390;-74
2023/01/20 09:17:21;;;;;;;59.40;29.80;;;;;;;1.44;86.36;100026.11;131512;1252;108700;-75
2023/01/20 09:20:27;;;;;;;62.00;31.10;;;;;;;1.39;86.46;100026.94;131466;1251;106592;-75
2023/01/20 09:23:34;;;;;;;64.70;32.60;;;;;;;1.34;86.65;100031.48;131360;1251;107515;-74
2023/01/20 09:26:40;;;;;;;69.50;34.00;;;;;;;1.33;86.87;100034.53;131399;1253;107334;-75
2023/01/20 09:29:45;;;;;;;59.10;29.30;;;;;;;1.33;86.84;100037.16;131260;1253;107550;-75
2023/01/20 09:32:55;;;;;;;66.70;31.00;;;;;;;1.36;86.92;100045.73;131481;1253;105912;-75
2023/01/20 09:36:02;;;;;;;68.50;32.00;;;;;;;1.45;86.95;100054.05;131286;1247;107375;-74
2023/01/20 09:46:13;;;;;;;61.10;32.20;;;;;;;1.60;86.71;100060.80;131352;1253;107977;-75
2023/01/20 09:53:04;;;;;;;62.90;31.50;;;;;;;1.69;86.83;100061.64;131273;1252;107392;-74
2023/01/20 09:56:15;;;;;;;63.60;31.40;;;;;;;1.71;86.26;100063.09;131492;1247;107202;-74
2023/01/20 09:59:26;;;;;;;63.30;32.80;;;;;;;1.71;86.52;100064.80;131365;1248;107539;-75
2023/01/20 10:02:35;;;;;;;77.10;38.70;;;;;;;1.75;86.34;100062.99;131456;1250;107510;-75
2023/01/20 10:05:43;;;;;;;64.60;31.70;;;;;;;1.74;86.43;100063.20;131516;1250;107562;-75
2023/01/20 10:08:56;;;;;;;63.70;32.90;;;;;;;1.78;86.64;100063.98;131539;1250;107495;-73
2023/01/20 10:12:05;;;;;;;66.40;34.00;;;;;;;1.81;86.61;100067.17;131453;1248;107526;-75
2023/01/20 10:15:19;;;;;;;75.10;33.50;;;;;;;1.81;86.38;100067.52;131545;1250;107642;-75
2023/01/20 10:18:34;;;;;;;66.80;32.30;;;;;;;1.78;86.32;100065.23;131463;1248;106784;-74
2023/01/20 10:21:45;;;;;;;66.70;34.60;;;;;;;1.78;86.39;100059.09;131533;1250;108742;-74
2023/01/20 10:24:57;;;;;;;78.10;37.80;;;;;;;1.83;86.51;100057.02;131487;1250;107440;-75
2023/01/20 10:28:08;;;;;;;83.60;41.70;;;;;;;1.85;86.26;100056.15;131390;1253;107321;-74
2023/01/20 10:31:21;;;;;;;74.10;37.30;;;;;;;1.86;86.41;100058.55;131321;1248;106465;-75
2023/01/20 10:34:31;;;;;;;76.70;38.90;;;;;;;1.88;86.37;100057.20;131576;1250;107403;-76
2023/01/20 10:37:37;;;;;;;81.30;39.90;;;;;;;1.90;86.33;100060.23;131549;1248;108655;-75
2023/01/20 10:40:50;;;;;;;89.00;40.70;;;;;;;1.86;86.35;100064.55;131368;1250;107574;-75
2023/01/20 10:43:59;;;;;;;80.20;39.00;;;;;;;1.86;86.43;100065.44;131358;1254;107459;-75
2023/01/20 10:47:18;;;;;;;64.40;31.20;;;;;;;1.89;86.37;100064.86;131443;1253;108644;-76
2023/01/20 10:50:47;;;;;;;66.40;33.30;;;;;;;1.90;86.30;100065.63;131413;1251;107576;-75
2023/01/20 10:54:06;;;;;;;77.40;35.50;;;;;;;1.86;86.10;100062.58;131307;1250;107496;-75
2023/01/20 10:57:15;;;;;;;75.10;35.90;;;;;;;1.84;86.29;100062.38;131354;1250;107404;-75
2023/01/20 11:00:26;;;;;;;78.20;37.10;;;;;;;1.85;86.56;100064.42;131414;1247;107574;-73
2023/01/20 11:03:37;;;;;;;72.40;34.90;;;;;;;1.79;86.48;100063.77;131493;1248;107526;-76
2023/01/20 11:06:43;;;;;;;68.70;31.70;;;;;;;1.73;86.70;100066.76;131207;1253;107353;-75
2023/01/20 11:09:49;;;;;;;70.00;32.20;;;;;;;1.75;86.85;100062.42;131219;1253;107521;-75
2023/01/20 11:12:58;;;;;;;63.20;30.00;;;;;;;1.85;86.78;100062.52;131251;1253;107364;-75
2023/01/20 11:16:11;;;;;;;77.60;36.10;;;;;;;1.95;86.90;100060.61;131389;1253;107245;-75
2023/01/20 11:19:16;;;;;;;65.30;32.40;;;;;;;2.04;86.83;100055.59;131291;1253;107431;-76
2023/01/20 11:22:30;;;;;;;67.00;31.90;;;;;;;2.07;86.26;100053.46;131251;1248;107449;-76
2023/01/20 11:25:36;;;;;;;68.10;32.90;;;;;;;2.03;86.46;100058.87;131347;1257;107345;-76
2023/01/20 11:28:50;;;;;;;67.30;31.60;;;;;;;1.98;86.21;100067.96;131368;1248;107450;-76
2023/01/20 11:31:58;;;;;;;64.60;30.90;;;;;;;1.97;86.36;100077.98;131290;1247;107250;-73
2023/01/20 11:35:19;;;;;;;61.80;28.30;;;;;;;1.94;86.03;100083.78;131345;1253;108703;-76
2023/01/20 11:38:28;;;;;;;65.70;31.00;;;;;;;1.89;86.16;100086.23;131391;1253;107507;-75
2023/01/20 11:41:34;;;;;;;53.60;26.50;;;;;;;1.92;86.23;100087.76;131214;1253;108446;-76
2023/01/20 11:44:44;;;;;;;58.10;26.60;;;;;;;2.02;86.26;100090.31;131318;1253;107509;-76
2023/01/20 11:48:05;;;;;;;55.00;25.30;;;;;;;2.05;85.47;100090.30;131225;1247;108665;-75
2023/01/20 11:51:21;;;;;;;59.10;27.90;;;;;;;2.06;85.63;100094.05;131239;1253;107484;-76
2023/01/20 11:54:28;;;;;;;60.70;27.80;;;;;;;2.08;85.59;100097.31;131513;1253;108671;-75
2023/01/20 11:57:34;;;;;;;58.80;28.00;;;;;;;2.07;85.46;100097.17;131392;1247;107388;-76
2023/01/20 12:00:43;;;;;;;64.00;29.70;;;;;;;1.99;85.36;100098.56;131466;1253;108683;-76
2023/01/20 12:04:20;;;;;;;61.80;28.70;;;;;;;1.93;85.55;100101.94;131368;1253;107418;-74
2023/01/20 12:07:29;;;;;;;57.50;26.00;;;;;;;1.83;85.44;100107.67;131526;1253;107567;-73
2023/01/20 12:10:37;;;;;;;53.60;24.00;;;;;;;1.84;85.97;100110.60;131461;1250;106603;-75
2023/01/20 12:17:27;;;;;;;65.70;30.20;;;;;;;1.91;85.57;100121.39;131411;1251;107523;-76
2023/01/20 12:20:42;;;;;;;74.60;38.20;;;;;;;1.96;85.96;100125.24;131505;1250;107538;-75
2023/01/20 12:23:53;;;;;;;69.20;31.50;;;;;;;1.97;85.83;100117.62;131532;1250;107419;-75
2023/01/20 12:26:59;;;;;;;68.10;31.70;;;;;;;1.93;85.74;100113.91;131420;1250;108602;-75
2023/01/20 12:30:15;;;;;;;75.80;34.30;;;;;;;1.87;85.96;100113.77;131310;1250;107497;-75
2023/01/20 12:33:24;;;;;;;74.00;35.80;;;;;;;1.82;86.07;100110.77;131210;1247;107524;-75
2023/01/20 12:37:02;;;;;;;66.70;29.20;;;;;;;1.79;86.04;100104.64;131269;1253;106535;-75
2023/01/20 12:40:30;;;;;;;71.00;29.90;;;;;;;1.88;86.39;100099.66;131186;1252;108117;-76
2023/01/20 12:43:49;;;;;;;66.40;32.10;;;;;;;1.98;86.25;100102.17;131226;1254;107399;-75
2023/01/20 12:47:03;;;;;;;70.30;32.80;;;;;;;1.98;86.00;100102.86;131229;1253;108450;-76
2023/01/20 12:50:27;;;;;;;69.60;30.70;;;;;;;1.96;86.12;100105.26;131207;1254;107242;-74
2023/01/20 12:53:47;;;;;;;71.80;32.50;;;;;;;1.95;86.04;100110.05;131237;1248;107371;-75
2023/01/20 12:57:04;;;;;;;78.20;34.60;;;;;;;1.91;86.16;100113.60;131205;1253;107228;-74
2023/01/20 13:00:23;;;;;;;89.20;38.80;;;;;;;1.87;86.15;100114.30;131043;1263;107431;-76
2023/01/20 13:04:04;;;;;;;59.50;25.70;;;;;;;1.91;86.39;100110.30;131313;1251;107320;-75
2023/01/20 13:07:36;;;;;;;85.30;42.00;;;;;;;2.01;86.25;100115.47;131052;1253;107557;-76
2023/01/20 13:10:50;;;;;;;69.90;30.10;;;;;;;2.08;85.98;100113.95;131086;1253;107510;-75
2023/01/20 13:14:10;;;;;;;72.20;31.50;;;;;;;2.10;85.86;100112.42;131039;1252;106590;-75
2023/01/20 13:17:23;;;;;;;68.80;30.30;;;;;;;2.05;85.69;100106.42;131254;1253;106597;-76
2023/01/20 13:20:31;;;;;;;60.60;27.90;;;;;;;2.01;85.85;100110.23;131350;1251;107351;-75
2023/01/20 13:23:37;;;;;;;62.50;26.90;;;;;;;1.99;85.76;100114.91;131405;1252;107013;-76
2023/01/20 13:26:43;;;;;;;65.80;27.50;;;;;;;2.04;86.14;100113.67;131239;1253;107545;-76
2023/01/20 13:29:57;;;;;;;104.50;54.30;;;;;;;2.08;85.83;100117.27;131243;1253;106684;-75
2023/01/20 13:33:07;;;;;;;81.40;42.20;;;;;;;2.09;85.69;100112.84;131237;1254;105928;-75
2023/01/20 13:36:20;;;;;;;65.80;30.60;;;;;;;2.10;85.79;100113.45;131385;1255;107372;-74
2023/01/20 13:39:42;;;;;;;67.80;31.30;;;;;;;2.14;85.69;100108.65;131408;1253;107521;-75
2023/01/20 13:42:52;;;;;;;68.20;34.30;;;;;;;2.16;85.23;100104.13;131323;1254;107469;-74
2023/01/20 13:46:44;;;;;;;64.40;31.70;;;;;;;2.15;85.29;100109.10;131285;1253;107326;-75
2023/01/20 13:49:53;;;;;;;59.80;27.80;;;;;;;2.13;85.54;100111.86;131429;1253;107449;-74
2023/01/20 13:53:15;;;;;;;81.20;38.20;;;;;;;2.14;85.39;100111.46;131366;1264;107364;-76
2023/01/20 13:56:28;;;;;;;71.00;29.50;;;;;;;2.10;85.41;100109.92;131181;1261;107582;-75
2023/01/20 13:59:34;;;;;;;76.40;35.00;;;;;;;2.11;85.56;100112.86;131502;1247;107236;-75
2023/01/20 14:02:39;;;;;;;74.70;32.70;;;;;;;2.16;85.75;100113.42;131533;1263;107215;-75
2023/01/20 14:05:51;;;;;;;75.30;36.20;;;;;;;2.22;85.35;100114.05;131490;1259;107473;-75
2023/01/20 14:09:00;;;;;;;69.80;30.50;;;;;;;2.18;85.23;100117.84;131636;1254;107558;-74
2023/01/20 14:12:08;;;;;;;60.60;28.80;;;;;;;2.13;85.25;100117.80;131550;1251;106324;-74
2023/01/20 14:15:31;;;;;;;56.40;26.40;;;;;;;2.12;85.36;100126.50;131578;1260;107823;-75
2023/01/20 14:18:40;;;;;;;58.90;24.40;;;;;;;2.08;85.29;100140.25;131518;1255;107501;-76
2023/01/20 14:21:50;;;;;;;63.20;26.00;;;;;;;2.07;85.38;100138.26;131336;1250;107567;-75
2023/01/20 14:24:58;;;;;;;56.90;26.50;;;;;;;2.04;85.41;100140.52;131232;1248;107251;-75
2023/01/20 14:28:16;;;;;;;63.70;28.10;;;;;;;2.05;85.36;100145.37;131439;1261;106168;-75